Time;durP1;ratioP1;P1;durP2;ratioP2;P2;SDS_P1;SDS_P2;PMS_P1;PMS_P2;Temp;Humidity;BMP_temperature;BMP_pressure;BME280_temperature;BME280_humidity;BME280_pressure;Samples;Min_cycle;Max_cycle;Signal;HPM_P1;HPM_P2
2022/03/29 00:00:38;;;;;;;2.72;2.22;;;;;;;17.73;39.28;101631.69;10549097;28;20071;-81
2022/03/29 00:05:40;;;;;;;1.35;1.13;;;;;;;17.84;39.47;101626.53;10548347;28;20131;-81
2022/03/29 00:10:42;;;;;;;9.52;4.50;;;;;;;16.92;41.54;101627.44;10552344;28;20483;-80
2022/03/29 00:15:43;;;;;;;3.47;1.55;;;;;;;17.19;41.55;101624.28;10537571;28;20063;-80
2022/03/29 00:20:45;;;;;;;5.15;2.88;;;;;;;16.96;41.95;101613.63;10516924;28;20079;-81
2022/03/29 00:25:47;;;;;;;4.13;3.13;;;;;;;17.28;40.99;101605.25;10517090;28;20052;-81
2022/03/29 00:30:49;;;;;;;10.10;3.13;;;;;;;17.42;41.18;101606.25;10516451;28;20093;-80
2022/03/29 00:35:53;;;;;;;2.60;2.40;;;;;;;18.37;39.23;101605.19;10517372;28;20404;-80
2022/03/29 00:40:54;;;;;;;1.35;0.43;;;;;;;17.84;40.97;101595.28;10517031;28;20139;-81
2022/03/29 00:45:56;;;;;;;2.90;1.65;;;;;;;17.60;41.04;101594.25;10534676;28;20044;-80
2022/03/29 00:50:58;;;;;;;6.55;4.28;;;;;;;16.65;43.07;101592.41;10516216;28;20056;-80
2022/03/29 00:56:02;;;;;;;2.20;2.00;;;;;;;17.65;41.16;101595.16;10534915;28;20166;-80
2022/03/29 01:01:05;;;;;;;3.53;0.47;;;;;;;18.90;38.28;101584.47;10515501;28;20563;-81
2022/03/29 01:06:08;;;;;;;4.88;2.10;;;;;;;18.21;39.46;101585.09;10514883;28;20138;-81
2022/03/29 01:11:12;;;;;;;3.97;3.22;;;;;;;17.02;42.68;101585.03;10534319;28;20487;-80
2022/03/29 01:21:39;;;;;;;2.42;2.17;;;;;;;17.96;40.45;101573.66;10534756;28;20546;-80
2022/03/29 01:26:41;;;;;;;4.53;3.55;;;;;;;17.27;41.80;101567.06;10535081;28;20138;-80
2022/03/29 01:31:43;;;;;;;4.00;1.67;;;;;;;18.01;40.05;101562.41;10533927;28;20048;-80
2022/03/29 01:36:45;;;;;;;5.47;2.35;;;;;;;17.85;40.88;101569.25;10512303;28;20123;-80
2022/03/29 01:41:48;;;;;;;0.77;0.75;;;;;;;17.26;42.67;101570.50;10527562;28;20064;-80
2022/03/29 01:46:50;;;;;;;1.30;1.00;;;;;;;17.85;40.99;101565.75;10524929;28;20078;-80
2022/03/29 01:51:52;;;;;;;6.18;3.78;;;;;;;16.75;43.23;101563.06;10534771;28;20476;-80
2022/03/29 01:56:54;;;;;;;8.15;5.53;;;;;;;16.04;44.60;101564.81;10534838;28;20130;-80
2022/03/29 02:01:55;;;;;;;1.38;0.47;;;;;;;17.93;40.61;101553.63;10533807;28;20166;-79
2022/03/29 02:06:59;;;;;;;7.38;4.00;;;;;;;16.43;44.09;101540.13;10533713;28;20461;-79
2022/03/29 02:12:02;;;;;;;6.10;3.58;;;;;;;16.59;44.45;101538.63;10519998;28;20086;-80
2022/03/29 02:17:03;;;;;;;2.17;0.32;;;;;;;18.30;40.33;101527.75;10541989;28;20056;-80
2022/03/29 02:22:05;;;;;;;0.10;0.10;;;;;;;19.00;38.43;101525.34;10538511;28;20123;-80
2022/03/29 02:27:06;;;;;;;7.32;1.02;;;;;;;18.02;40.13;101512.00;10540755;28;20048;-80
2022/03/29 02:32:08;;;;;;;0.00;0.00;;;;;;;19.97;36.41;101506.97;10539803;28;20145;-80
2022/03/29 02:37:13;;;;;;;0.30;0.30;;;;;;;19.22;37.22;101494.88;10521042;28;20356;-80
2022/03/29 02:42:15;;;;;;;0.35;0.35;;;;;;;19.99;35.83;101487.78;10539150;28;20123;-80
2022/03/29 02:47:16;;;;;;;1.73;0.82;;;;;;;18.65;38.53;101485.22;10538856;28;20131;-80
2022/03/29 02:52:18;;;;;;;0.05;0.05;;;;;;;18.50;39.86;101482.63;10538441;28;20451;-80
2022/03/29 02:57:20;;;;;;;1.30;1.05;;;;;;;17.65;40.54;101470.09;10539680;28;20079;-80
2022/03/29 03:02:22;;;;;;;0.10;0.10;;;;;;;18.86;39.20;101476.56;10538756;28;20487;-80
2022/03/29 03:07:24;;;;;;;0.00;0.00;;;;;;;20.72;34.86;101454.22;10538258;28;20052;-81
2022/03/29 03:12:25;;;;;;;0.00;0.00;;;;;;;20.86;34.45;101452.38;10519180;28;20136;-80
2022/03/29 03:17:27;;;;;;;0.00;0.00;;;;;;;21.15;33.69;101453.88;10537978;28;20180;-80
2022/03/29 03:22:29;;;;;;;0.00;0.00;;;;;;;20.05;36.48;101441.53;10535951;28;20056;-80
2022/03/29 03:27:30;;;;;;;2.33;1.80;;;;;;;16.94;42.20;101464.38;10520333;28;20138;-80
2022/03/29 03:32:32;;;;;;;2.35;1.23;;;;;;;18.70;38.96;101446.97;10519949;28;20115;-80
2022/03/29 03:37:34;;;;;;;0.95;0.43;;;;;;;18.52;39.67;101434.78;10515162;28;20063;-80
2022/03/29 03:42:37;;;;;;;0.47;0.47;;;;;;;17.37;41.70;101433.47;10545951;27;20040;-80
2022/03/29 03:47:39;;;;;;;0.00;0.00;;;;;;;19.20;38.23;101423.47;10531144;28;20043;-80
2022/03/29 03:52:41;;;;;;;0.00;0.00;;;;;;;19.11;38.17;101413.03;10528653;28;20126;-79
2022/03/29 03:57:42;;;;;;;0.00;0.00;;;;;;;17.91;41.05;101415.47;10554928;27;20452;-80
2022/03/29 04:02:44;;;;;;;0.00;0.00;;;;;;;18.74;39.09;101407.81;10534284;28;20040;-79
2022/03/29 04:07:45;;;;;;;0.45;0.45;;;;;;;18.08;40.63;101406.88;10512053;28;20046;-79
2022/03/29 04:12:47;;;;;;;1.05;1.05;;;;;;;21.55;33.26;101394.91;10529820;28;20426;-80
2022/03/29 04:17:48;;;;;;;0.00;0.00;;;;;;;21.19;33.98;101391.84;10540102;28;20055;-81
2022/03/29 04:22:50;;;;;;;0.00;0.00;;;;;;;19.56;37.32;101382.44;10532447;28;20118;-79
2022/03/29 04:27:52;;;;;;;0.00;0.00;;;;;;;20.49;35.01;101379.34;10503364;28;20047;-79
2022/03/29 04:32:54;;;;;;;0.00;0.00;;;;;;;19.92;35.93;101379.72;10508867;28;20507;-79
2022/03/29 04:37:56;;;;;;;0.00;0.00;;;;;;;20.12;36.03;101374.38;10531657;28;20114;-80
2022/03/29 04:43:00;;;;;;;0.00;0.00;;;;;;;19.46;36.69;101370.31;10531606;28;20067;-81
2022/03/29 04:48:01;;;;;;;0.00;0.00;;;;;;;18.74;38.70;101376.50;10519345;28;20040;-79
2022/03/29 04:53:03;;;;;;;0.00;0.00;;;;;;;20.58;35.17;101366.19;10500328;28;20039;-79
2022/03/29 04:58:07;;;;;;;0.00;0.00;;;;;;;20.03;36.15;101363.97;10507830;28;20109;-80
2022/03/29 05:03:09;;;;;;;0.00;0.00;;;;;;;21.75;32.88;101364.97;10530868;28;20190;-80
2022/03/29 05:08:11;;;;;;;0.55;0.52;;;;;;;17.00;41.30;101378.53;10515699;28;20044;-80
2022/03/29 05:13:15;;;;;;;0.00;0.00;;;;;;;17.01;41.84;101366.38;10534122;28;20075;-80
2022/03/29 05:18:18;;;;;;;0.00;0.00;;;;;;;19.75;36.94;101358.84;10548897;28;20052;-80
2022/03/29 05:23:20;;;;;;;0.20;0.20;;;;;;;17.64;39.83;101365.88;10515423;28;20067;-80
2022/03/29 05:28:21;;;;;;;1.35;1.25;;;;;;;17.48;40.35;101363.19;10529372;28;20048;-80
2022/03/29 05:33:23;;;;;;;0.00;0.00;;;;;;;16.77;41.85;101374.00;10533122;28;20421;-80
2022/03/29 05:38:25;;;;;;;0.00;0.00;;;;;;;20.32;34.74;101365.50;10531879;28;20048;-81
2022/03/29 05:43:29;;;;;;;0.00;0.00;;;;;;;20.04;35.15;101360.47;10517476;28;20140;-80
2022/03/29 05:48:52;;;;;;;0.17;0.10;;;;;;;19.62;35.27;101358.03;10539595;28;20043;-80
2022/03/29 05:53:57;;;;;;;0.00;0.00;;;;;;;18.56;38.31;101367.81;10536140;28;20044;-79
2022/03/29 05:58:59;;;;;;;0.00;0.00;;;;;;;19.50;36.02;101365.06;10539768;28;20580;-80
2022/03/29 06:04:06;;;;;;;1.13;1.13;;;;;;;19.37;35.65;101363.34;10521795;28;20119;-80
2022/03/29 06:09:08;;;;;;;0.28;0.20;;;;;;;17.52;39.87;101369.28;10540056;28;20048;-79
2022/03/29 06:14:10;;;;;;;1.17;0.45;;;;;;;17.91;38.96;101371.16;10540104;28;20080;-80
2022/03/29 06:19:12;;;;;;;0.00;0.00;;;;;;;18.71;36.95;101370.44;10536363;28;20036;-82
2022/03/29 06:24:14;;;;;;;0.00;0.00;;;;;;;20.47;33.72;101364.53;10532573;28;20499;-81
2022/03/29 06:29:16;;;;;;;0.00;0.00;;;;;;;18.39;37.66;101373.91;10515749;28;20036;-81
2022/03/29 06:34:17;;;;;;;0.00;0.00;;;;;;;20.41;34.42;101365.44;10537757;28;20078;-81
2022/03/29 06:39:19;;;;;;;1.30;1.10;;;;;;;17.21;39.69;101375.19;10537172;28;20108;-80
2022/03/29 06:44:20;;;;;;;0.00;0.00;;;;;;;17.92;38.76;101377.22;10539060;28;20036;-80
2022/03/29 06:49:22;;;;;;;1.95;1.85;;;;;;;17.06;39.50;101378.56;10538617;28;20127;-80
2022/03/29 06:54:23;;;;;;;2.08;0.88;;;;;;;16.37;40.92;101373.66;10538398;28;20119;-80
2022/03/29 06:59:28;;;;;;;0.00;0.00;;;;;;;17.97;37.28;101362.53;10506976;28;20620;-80
2022/03/29 07:04:46;;;;;;;0.43;0.30;;;;;;;17.19;38.45;101368.22;10522564;28;20040;-79
2022/03/29 07:15:10;;;;;;;0.00;0.00;;;;;;;18.46;36.81;101371.28;10537126;28;20040;-79
2022/03/29 07:20:13;;;;;;;0.00;0.00;;;;;;;18.21;37.68;101371.25;10535696;28;20051;-79
2022/03/29 07:25:20;;;;;;;3.65;1.08;;;;;;;6.03;70.62;101410.38;10525311;28;20428;-79
2022/03/29 07:31:08;;;;;;;4.47;0.75;;;;;;;-146.30;70.62;77742.19;10532859;28;20565;-79
2022/03/29 07:36:38;;;;;;;0.30;0.30;;;;;;;6.03;70.62;101410.38;10532477;28;20051;-81
2022/03/29 07:41:43;;;;;;;1.25;1.15;;;;;;;6.03;70.62;101410.38;10531621;28;20437;-82
2022/03/29 07:46:52;;;;;;;0.00;0.00;;;;;;;6.03;70.62;101410.38;10512593;28;20036;-80
2022/03/29 07:52:53;;;;;;;0.00;0.00;;;;;;;-146.30;100.00;58188.94;10534415;28;20059;-82
2022/03/29 07:58:56;;;;;;;0.00;0.00;;;;;;;-146.30;100.00;58188.94;10514618;28;20032;-81
2022/03/29 08:03:57;;;;;;;0.00;0.00;;;;;;;6.89;75.41;101418.09;10531663;28;20113;-80
2022/03/29 08:08:59;;;;;;;1.95;1.30;;;;;;;6.71;75.66;101417.19;10533005;28;20075;-81
2022/03/29 08:14:01;;;;;;;0.22;0.22;;;;;;;6.61;75.31;101419.28;10509725;28;20522;-81
2022/03/29 08:19:02;;;;;;;0.00;0.00;;;;;;;6.61;75.22;101416.72;10532387;28;20153;-81
2022/03/29 08:24:04;;;;;;;0.00;0.00;;;;;;;6.55;74.42;101411.31;10534884;28;20444;-81
2022/03/29 08:29:05;;;;;;;0.00;0.00;;;;;;;6.95;74.78;101415.84;10533717;28;20087;-81
2022/03/29 08:34:07;;;;;;;0.00;0.00;;;;;;;6.67;74.09;101409.34;10532884;28;20044;-81
2022/03/29 08:39:10;;;;;;;0.20;0.20;;;;;;;6.78;74.05;101414.16;10534936;28;20040;-80
2022/03/29 08:44:14;;;;;;;0.00;0.00;;;;;;;6.60;74.46;101409.84;10516413;28;20051;-80
2022/03/29 08:49:18;;;;;;;0.00;0.00;;;;;;;6.75;72.55;101414.88;10515203;28;20052;-79
2022/03/29 08:54:20;;;;;;;1.45;0.70;;;;;;;6.37;75.60;101410.38;10558440;27;20086;-80
2022/03/29 08:59:22;;;;;;;0.00;0.00;;;;;;;6.75;75.08;101403.72;10534825;28;20101;-80
2022/03/29 09:04:25;;;;;;;0.75;0.57;;;;;;;6.85;73.99;101390.59;10508806;28;20048;-80
2022/03/29 09:09:28;;;;;;;0.00;0.00;;;;;;;7.36;73.10;101381.88;10534085;28;20048;-81
2022/03/29 09:14:29;;;;;;;0.00;0.00;;;;;;;7.61;73.18;101386.44;10514511;28;20563;-80
2022/03/29 09:19:51;;;;;;;0.00;0.00;;;;;;;7.45;70.88;101372.91;10533626;28;20606;-81
2022/03/29 09:24:55;;;;;;;0.00;0.00;;;;;;;8.14;71.41;101374.28;10532973;28;20043;-80
2022/03/29 09:30:07;;;;;;;0.00;0.00;;;;;;;8.01;69.92;101372.84;10523754;28;20048;-81
2022/03/29 09:35:15;;;;;;;0.00;0.00;;;;;;;8.41;70.04;101371.13;10540939;28;20127;-79
2022/03/29 09:40:17;;;;;;;0.57;0.57;;;;;;;8.17;69.75;101374.38;10539366;28;20135;-80
2022/03/29 09:46:01;;;;;;;0.20;0.20;;;;;;;9.22;67.00;101357.28;10541331;28;20067;-80
2022/03/29 09:51:09;;;;;;;0.30;0.30;;;;;;;7.98;68.08;101366.72;10520268;28;20052;-80
2022/03/29 09:56:14;;;;;;;1.08;0.52;;;;;;;8.09;67.53;101366.38;10541362;28;20064;-80
2022/03/29 10:01:46;;;;;;;2.55;0.57;;;;;;;8.59;67.92;101352.19;10540501;28;20483;-79
2022/03/29 10:07:08;;;;;;;4.65;1.90;;;;;;;8.59;67.92;101352.19;10540169;28;20506;-79
2022/03/29 10:12:11;;;;;;;0.00;0.00;;;;;;;10.21;63.72;101329.09;10539844;28;20502;-81
2022/03/29 10:17:15;;;;;;;0.30;0.30;;;;;;;10.15;61.13;101329.75;10540648;28;20087;-80
2022/03/29 10:22:17;;;;;;;0.00;0.00;;;;;;;10.05;62.12;101328.56;10539157;28;20074;-80
2022/03/29 10:27:19;;;;;;;0.63;0.63;;;;;;;9.10;64.04;101326.84;10538190;28;20139;-79
2022/03/29 10:32:28;;;;;;;2.63;1.70;;;;;;;10.11;61.46;101318.47;10538421;28;20072;-81
2022/03/29 10:37:32;;;;;;;0.03;0.03;;;;;;;10.60;61.12;101321.00;10520641;28;20127;-80
2022/03/29 10:42:44;;;;;;;1.08;1.08;;;;;;;13.33;53.53;101301.56;10520900;28;20064;-80
2022/03/29 10:48:09;;;;;;;0.00;0.00;;;;;;;9.78;60.83;101315.59;10539228;28;20044;-79
2022/03/29 10:53:45;;;;;;;0.63;0.63;;;;;;;10.84;59.45;101308.00;10539024;28;20073;-81
2022/03/29 10:59:01;;;;;;;0.00;0.00;;;;;;;11.22;57.80;101299.66;10524106;28;20080;-80
2022/03/29 11:04:17;;;;;;;0.00;0.00;;;;;;;11.64;56.21;101294.00;10537834;28;20044;-80
2022/03/29 11:09:24;;;;;;;0.00;0.00;;;;;;;12.31;55.60;101295.75;10513285;28;20040;-80
2022/03/29 11:14:28;;;;;;;0.00;0.00;;;;;;;11.99;54.03;101288.94;10538197;28;20097;-79
2022/03/29 11:19:47;;;;;;;2.20;0.70;;;;;;;13.93;48.77;101283.75;10520728;28;20047;-79
2022/03/29 11:24:52;;;;;;;0.00;0.00;;;;;;;14.28;52.51;101280.91;10517999;28;20190;-80
2022/03/29 11:29:55;;;;;;;0.00;0.00;;;;;;;14.21;50.95;101262.66;10507174;28;20397;-81
2022/03/29 11:34:58;;;;;;;0.10;0.10;;;;;;;14.59;49.44;101254.63;10541010;28;20044;-80
2022/03/29 11:40:02;;;;;;;0.00;0.00;;;;;;;13.79;49.97;101249.84;10533178;28;20067;-80
2022/03/29 11:45:06;;;;;;;0.03;0.03;;;;;;;11.89;54.71;101245.59;10514146;28;20086;-80
2022/03/29 11:50:08;;;;;;;0.55;0.45;;;;;;;14.23;50.38;101225.53;10537775;28;20617;-81
2022/03/29 11:55:16;;;;;;;0.00;0.00;;;;;;;14.97;48.52;101219.69;10501704;28;20474;-81
2022/03/29 12:00:23;;;;;;;0.00;0.00;;;;;;;14.38;48.44;101208.50;10515475;28;20130;-80
2022/03/29 12:05:27;;;;;;;0.25;0.25;;;;;;;13.98;51.44;101211.31;10524862;28;20045;-80
2022/03/29 12:10:32;;;;;;;0.22;0.22;;;;;;;14.06;48.71;101201.06;10510792;28;20090;-80
2022/03/29 12:15:34;;;;;;;0.00;0.00;;;;;;;12.63;52.49;101197.47;10537598;28;20048;-80
2022/03/29 12:20:36;;;;;;;0.00;0.00;;;;;;;14.38;50.03;101177.38;10509700;28;20063;-81
2022/03/29 12:25:38;;;;;;;0.00;0.00;;;;;;;14.78;47.51;101161.53;10520875;28;20044;-81
2022/03/29 12:30:40;;;;;;;0.00;0.00;;;;;;;13.78;49.59;101169.53;10484200;28;20087;-80
2022/03/29 12:35:44;;;;;;;0.00;0.00;;;;;;;14.82;47.73;101152.94;10531612;28;20094;-81
2022/03/29 12:40:57;;;;;;;0.00;0.00;;;;;;;13.71;50.66;101142.66;10526949;28;20485;-82
2022/03/29 12:45:58;;;;;;;8.90;3.47;;;;;;;12.64;48.55;101143.22;10508970;28;20124;-81
2022/03/29 12:51:04;;;;;;;0.00;0.00;;;;;;;13.32;49.58;101134.19;10507203;28;20423;-80
2022/03/29 12:56:10;;;;;;;0.28;0.28;;;;;;;13.58;49.28;101120.88;10543167;28;20071;-80
2022/03/29 13:01:27;;;;;;;0.43;0.40;;;;;;;14.56;48.32;101107.63;10528865;28;20080;-79
2022/03/29 13:06:38;;;;;;;0.00;0.00;;;;;;;15.35;47.55;101098.13;10506639;28;20048;-80
2022/03/29 13:11:41;;;;;;;0.00;0.00;;;;;;;14.99;45.54;101093.47;10503294;28;20079;-79
2022/03/29 13:16:53;;;;;;;0.17;0.17;;;;;;;15.25;45.18;101080.75;10525881;28;20047;-79
2022/03/29 13:22:05;;;;;;;0.00;0.00;;;;;;;15.44;44.31;101076.59;10524345;28;20040;-79
2022/03/29 13:27:10;;;;;;;0.30;0.28;;;;;;;13.71;45.76;101070.16;10493719;28;20057;-78
2022/03/29 13:32:14;;;;;;;0.47;0.35;;;;;;;14.12;45.70;101071.63;10493057;28;20040;-79
2022/03/29 13:37:16;;;;;;;2.45;0.82;;;;;;;13.60;48.69;101053.59;10527860;28;20047;-79
2022/03/29 13:42:18;;;;;;;0.52;0.28;;;;;;;13.11;48.15;101051.03;10509813;28;20491;-81
2022/03/29 13:47:20;;;;;;;0.08;0.08;;;;;;;13.47;46.02;101047.34;10521247;28;20441;-79
2022/03/29 13:52:23;;;;;;;0.00;0.00;;;;;;;13.90;45.47;101040.22;10508086;28;20104;-79
2022/03/29 13:57:24;;;;;;;0.00;0.00;;;;;;;14.89;45.91;101020.72;10512240;28;20044;-80
2022/03/29 14:02:26;;;;;;;0.00;0.00;;;;;;;14.78;44.37;101017.16;10525002;28;20056;-79
2022/03/29 14:07:28;;;;;;;0.15;0.10;;;;;;;14.05;45.32;101008.50;10515993;28;20461;-79
2022/03/29 14:12:29;;;;;;;0.98;0.90;;;;;;;14.31;41.80;101009.69;10513461;28;20126;-80
2022/03/29 14:17:31;;;;;;;0.00;0.00;;;;;;;14.18;42.55;101001.78;10517319;28;20119;-79
2022/03/29 14:22:34;;;;;;;0.00;0.00;;;;;;;14.20;42.49;100997.44;10549877;28;20326;-79
2022/03/29 14:27:36;;;;;;;1.73;1.17;;;;;;;13.84;42.32;100988.34;10509924;28;20513;-79
2022/03/29 14:32:37;;;;;;;0.00;0.00;;;;;;;14.20;44.41;100984.50;10512729;28;20075;-80
2022/03/29 14:37:40;;;;;;;0.00;0.00;;;;;;;13.54;42.51;100981.88;10517681;28;20113;-79
2022/03/29 14:42:42;;;;;;;0.00;0.00;;;;;;;14.22;39.73;100967.25;10532057;28;20151;-79
2022/03/29 14:47:46;;;;;;;0.00;0.00;;;;;;;14.58;38.07;100968.50;10513415;28;20036;-80
2022/03/29 14:52:50;;;;;;;0.00;0.00;;;;;;;14.01;39.35;100949.72;10547719;28;20051;-79
2022/03/29 14:57:53;;;;;;;0.00;0.00;;;;;;;14.04;38.87;100951.47;10534130;28;20036;-79
2022/03/29 15:02:54;;;;;;;0.00;0.00;;;;;;;14.41;39.13;100947.59;10530016;28;20131;-78
2022/03/29 15:07:56;;;;;;;0.00;0.00;;;;;;;14.82;40.39;100935.06;10535404;28;20067;-78
2022/03/29 15:12:58;;;;;;;0.00;0.00;;;;;;;14.26;39.97;100929.28;10515468;28;20127;-79
2022/03/29 15:17:59;;;;;;;0.00;0.00;;;;;;;14.10;42.63;100938.63;10539661;28;20067;-80
2022/03/29 15:23:03;;;;;;;8.30;0.95;;;;;;;14.02;41.86;100924.72;10531048;28;20044;-79
2022/03/29 15:28:05;;;;;;;0.00;0.00;;;;;;;14.23;40.88;100922.38;10531060;28;20131;-79
2022/03/29 15:33:08;;;;;;;0.00;0.00;;;;;;;14.12;42.42;100918.75;10514613;28;20099;-75
2022/03/29 15:38:11;;;;;;;0.00;0.00;;;;;;;13.48;42.90;100911.94;10531277;28;20553;-76
2022/03/29 15:43:14;;;;;;;0.00;0.00;;;;;;;13.99;42.53;100907.41;10533185;28;20050;-75
2022/03/29 15:48:17;;;;;;;0.90;0.80;;;;;;;13.46;40.89;100908.44;10516783;28;20047;-77
2022/03/29 15:53:20;;;;;;;0.00;0.00;;;;;;;13.73;42.09;100901.91;10514106;28;20696;-74
2022/03/29 15:58:23;;;;;;;0.17;0.15;;;;;;;13.25;40.96;100894.31;10529399;28;20542;-76
2022/03/29 16:03:45;;;;;;;0.00;0.00;;;;;;;13.20;43.19;100888.22;10527898;28;20054;-75
2022/03/29 16:08:47;;;;;;;0.30;0.30;;;;;;;13.09;42.75;100887.16;10530473;28;20105;-75
2022/03/29 16:13:49;;;;;;;0.20;0.20;;;;;;;13.15;43.74;100882.06;10526288;28;20129;-75
2022/03/29 16:18:51;;;;;;;0.00;0.00;;;;;;;13.14;42.85;100875.19;10530152;28;20570;-75
2022/03/29 16:23:53;;;;;;;0.20;0.20;;;;;;;12.98;44.17;100871.47;10529206;28;20071;-75
2022/03/29 16:28:54;;;;;;;1.17;0.75;;;;;;;12.82;45.72;100872.97;10532381;28;20353;-75
2022/03/29 16:33:56;;;;;;;0.00;0.00;;;;;;;13.01;44.84;100867.22;10530133;28;20032;-76
2022/03/29 16:39:05;;;;;;;2.42;1.65;;;;;;;12.91;45.38;100872.22;10511699;28;20044;-76
2022/03/29 16:44:08;;;;;;;0.10;0.10;;;;;;;12.58;46.58;100853.63;10512041;28;20059;-75
2022/03/29 16:49:10;;;;;;;0.00;0.00;;;;;;;12.64;44.64;100856.31;10527315;28;21298;-76
2022/03/29 16:54:11;;;;;;;0.00;0.00;;;;;;;12.58;44.89;100858.78;10490277;28;20048;-75
2022/03/29 16:59:13;;;;;;;0.57;0.57;;;;;;;12.40;43.13;100858.50;10513486;28;20089;-76
2022/03/29 17:04:15;;;;;;;1.38;1.27;;;;;;;12.38;44.51;100854.16;10510284;28;20451;-75
2022/03/29 17:09:17;;;;;;;0.00;0.00;;;;;;;12.19;45.20;100859.81;10512656;28;20043;-75
2022/03/29 17:14:19;;;;;;;0.00;0.00;;;;;;;12.08;45.67;100866.50;10527009;28;20119;-77
2022/03/29 17:19:20;;;;;;;0.00;0.00;;;;;;;11.97;46.70;100859.41;10532454;28;20534;-77
2022/03/29 17:24:22;;;;;;;0.00;0.00;;;;;;;11.82;47.51;100864.22;10529341;28;20044;-76
2022/03/29 17:29:24;;;;;;;0.00;0.00;;;;;;;11.55;49.03;100865.41;10528521;28;20127;-76
2022/03/29 17:34:29;;;;;;;0.00;0.00;;;;;;;11.31;48.68;100864.03;10512084;28;20086;-76
2022/03/29 17:39:34;;;;;;;0.80;0.70;;;;;;;11.10;49.86;100869.56;10527416;28;20083;-77
2022/03/29 17:44:38;;;;;;;0.00;0.00;;;;;;;10.88;50.47;100873.38;10531812;28;20083;-76
2022/03/29 17:49:41;;;;;;;0.00;0.00;;;;;;;10.78;49.98;100870.56;10535301;28;20075;-76
2022/03/29 17:54:42;;;;;;;0.00;0.00;;;;;;;10.55;50.80;100871.69;10514806;28;20433;-75
2022/03/29 17:59:45;;;;;;;0.00;0.00;;;;;;;10.42;51.05;100873.94;10535951;28;20086;-75
2022/03/29 18:04:46;;;;;;;0.00;0.00;;;;;;;10.28;50.92;100867.53;10522760;28;20458;-76
2022/03/29 18:09:49;;;;;;;0.00;0.00;;;;;;;10.01;52.55;100868.53;10533457;28;20122;-76
2022/03/29 18:14:50;;;;;;;0.00;0.00;;;;;;;9.84;52.38;100876.66;10535598;28;20041;-78
2022/03/29 18:19:52;;;;;;;0.00;0.00;;;;;;;9.81;52.64;100875.69;10536090;28;20120;-76
2022/03/29 18:24:54;;;;;;;0.00;0.00;;;;;;;9.79;52.04;100874.78;10535804;28;20043;-76
2022/03/29 18:29:55;;;;;;;0.25;0.25;;;;;;;9.59;53.05;100879.34;10532397;28;20046;-76
2022/03/29 18:34:57;;;;;;;0.10;0.10;;;;;;;9.43;53.56;100878.88;10532592;28;20083;-76
2022/03/29 18:40:19;;;;;;;0.45;0.45;;;;;;;9.36;53.50;100882.09;10534332;28;20399;-75
2022/03/29 18:45:21;;;;;;;0.00;0.00;;;;;;;9.16;54.29;100874.66;10527014;28;20044;-77
2022/03/29 18:50:24;;;;;;;0.32;0.15;;;;;;;9.18;54.53;100883.28;10523538;28;20075;-77
2022/03/29 18:55:26;;;;;;;0.00;0.00;;;;;;;9.01;55.37;100894.72;10517662;28;20048;-76
2022/03/29 19:00:29;;;;;;;0.08;0.08;;;;;;;8.88;55.81;100886.63;10531982;28;20075;-76
2022/03/29 19:05:32;;;;;;;1.55;0.52;;;;;;;8.75;56.65;100889.59;10528747;28;20048;-76
2022/03/29 19:10:37;;;;;;;0.00;0.00;;;;;;;8.66;58.04;100890.16;10532746;28;20043;-76
2022/03/29 19:15:46;;;;;;;0.00;0.00;;;;;;;8.38;59.38;100891.78;10526327;28;20430;-76
2022/03/29 19:20:48;;;;;;;0.03;0.03;;;;;;;8.28;60.53;100897.38;10515722;28;20475;-76
2022/03/29 19:25:50;;;;;;;1.65;1.05;;;;;;;8.34;60.42;100899.31;10536300;28;20124;-76
2022/03/29 19:30:51;;;;;;;0.00;0.00;;;;;;;8.38;59.98;100893.44;10534591;28;20078;-75
2022/03/29 19:35:53;;;;;;;0.52;0.38;;;;;;;8.20;60.35;100894.56;10536102;28;20170;-77
2022/03/29 19:40:56;;;;;;;0.17;0.17;;;;;;;8.21;61.27;100893.75;10535095;28;20051;-77
2022/03/29 19:45:57;;;;;;;0.05;0.05;;;;;;;8.03;61.58;100893.97;10536303;28;20128;-76
2022/03/29 19:51:29;;;;;;;0.00;0.00;;;;;;;7.98;61.55;100894.63;10525500;28;20058;-77
2022/03/29 19:56:31;;;;;;;0.00;0.00;;;;;;;7.86;61.91;100890.78;10531005;28;20551;-75
2022/03/29 20:01:32;;;;;;;0.08;0.08;;;;;;;7.62;63.01;100891.63;10529275;28;20127;-77
2022/03/29 20:06:34;;;;;;;0.00;0.00;;;;;;;7.56;63.24;100891.38;10522907;28;20040;-76
2022/03/29 20:11:35;;;;;;;0.15;0.10;;;;;;;7.56;63.31;100881.13;10527861;28;20082;-76
2022/03/29 20:16:37;;;;;;;0.20;0.20;;;;;;;7.44;63.62;100891.81;10535430;28;20138;-76
2022/03/29 20:21:39;;;;;;;0.00;0.00;;;;;;;7.29;64.02;100892.06;10543401;28;20050;-76
2022/03/29 20:26:41;;;;;;;0.00;0.00;;;;;;;7.32;63.74;100885.31;10533835;28;20044;-75
2022/03/29 20:31:43;;;;;;;0.63;0.30;;;;;;;7.15;63.83;100883.81;10512475;28;20446;-75
2022/03/29 20:36:47;;;;;;;0.55;0.30;;;;;;;7.09;65.06;100877.59;10530806;28;20420;-76
2022/03/29 20:41:50;;;;;;;0.00;0.00;;;;;;;7.07;64.51;100880.13;10509695;28;20040;-76
2022/03/29 20:46:51;;;;;;;0.63;0.38;;;;;;;6.90;65.25;100876.00;10530370;28;20060;-75
2022/03/29 20:51:53;;;;;;;0.00;0.00;;;;;;;6.88;65.00;100873.38;10531112;28;20040;-76
2022/03/29 20:56:55;;;;;;;0.00;0.00;;;;;;;6.87;65.25;100871.63;10513350;28;20467;-77
2022/03/29 21:01:56;;;;;;;0.00;0.00;;;;;;;6.65;65.43;100873.31;10528103;28;20376;-80
2022/03/29 21:06:58;;;;;;;0.00;0.00;;;;;;;6.58;65.88;100868.75;10529888;28;20048;-79
2022/03/29 21:12:00;;;;;;;3.30;0.57;;;;;;;6.54;65.63;100871.97;10532746;28;20093;-79
2022/03/29 21:17:02;;;;;;;0.00;0.00;;;;;;;6.43;66.74;100868.09;10533494;28;20075;-79
2022/03/29 21:22:04;;;;;;;0.13;0.13;;;;;;;6.27;66.38;100867.47;10534474;28;20044;-75
2022/03/29 21:27:06;;;;;;;0.00;0.00;;;;;;;6.24;67.23;100871.56;10539322;28;20048;-76
2022/03/29 21:32:07;;;;;;;0.38;0.38;;;;;;;6.03;67.66;100862.16;10539700;28;20048;-76
2022/03/29 21:37:09;;;;;;;0.20;0.10;;;;;;;5.82;68.19;100862.03;10539570;28;20103;-76
2022/03/29 21:42:10;;;;;;;0.10;0.10;;;;;;;5.77;68.24;100856.72;10558304;28;20131;-75
2022/03/29 21:47:12;;;;;;;0.00;0.00;;;;;;;5.76;68.29;100861.78;10521460;28;20048;-75
2022/03/29 21:52:39;;;;;;;0.10;0.10;;;;;;;5.84;68.51;100860.44;10539200;28;20052;-75
2022/03/29 21:58:06;;;;;;;0.00;0.00;;;;;;;5.63;68.88;100856.09;10539856;28;20484;-75
2022/03/29 22:03:27;;;;;;;0.00;0.00;;;;;;;5.67;68.95;100842.66;10525211;28;20048;-75
2022/03/29 22:08:47;;;;;;;0.00;0.00;;;;;;;5.53;69.40;100839.47;10540652;28;20040;-75
2022/03/29 22:13:50;;;;;;;0.00;0.00;;;;;;;5.43;69.45;100841.53;10521561;28;20044;-75
2022/03/29 22:18:52;;;;;;;0.98;0.98;;;;;;;5.51;69.38;100845.31;10520506;28;20048;-76
2022/03/29 22:23:54;;;;;;;0.75;0.75;;;;;;;5.35;69.48;100836.97;10503771;28;20048;-76
2022/03/29 22:29:02;;;;;;;0.00;0.00;;;;;;;5.23;69.48;100842.38;10500052;28;20044;-76
2022/03/29 22:34:04;;;;;;;0.13;0.13;;;;;;;5.25;70.13;100837.31;10518889;28;20056;-76
2022/03/29 22:39:08;;;;;;;0.00;0.00;;;;;;;5.22;69.51;100834.66;10527802;28;20040;-76
2022/03/29 22:44:10;;;;;;;0.00;0.00;;;;;;;5.07;69.90;100833.13;10551289;28;20036;-76
2022/03/29 22:49:11;;;;;;;0.00;0.00;;;;;;;4.81;70.76;100819.13;10527506;28;20048;-75
2022/03/29 22:54:16;;;;;;;0.00;0.00;;;;;;;4.84;70.74;100819.25;10535332;28;20071;-75
2022/03/29 22:59:17;;;;;;;0.00;0.00;;;;;;;4.66;71.13;100816.69;10546866;28;20418;-76
2022/03/29 23:04:19;;;;;;;0.10;0.10;;;;;;;4.63;71.87;100824.22;10526993;28;20067;-75
2022/03/29 23:09:21;;;;;;;0.00;0.00;;;;;;;4.61;71.85;100825.81;10544347;28;20044;-75
2022/03/29 23:14:24;;;;;;;0.00;0.00;;;;;;;4.54;72.09;100818.66;10552117;28;20434;-75
2022/03/29 23:19:29;;;;;;;0.00;0.00;;;;;;;4.36;72.89;100828.84;10544125;28;20072;-76
2022/03/29 23:24:31;;;;;;;0.00;0.00;;;;;;;4.44;71.92;100828.41;10555677;28;20075;-75
2022/03/29 23:29:33;;;;;;;0.10;0.10;;;;;;;4.57;71.49;100831.59;10562012;28;20064;-76
2022/03/29 23:34:35;;;;;;;0.00;0.00;;;;;;;4.57;71.77;100826.47;10543204;28;20117;-75